createdAt,value
2018-01-23T00:00:35.468Z,10.37
2018-01-23T00:03:03.831Z,10.50
2018-01-23T00:05:32.114Z,10.77
2018-01-23T00:08:00.362Z,10.73
2018-01-23T00:10:27.806Z,10.10
2018-01-23T00:12:55.248Z,9.43
2018-01-23T00:15:22.691Z,11.37
2018-01-23T00:17:50.136Z,9.33
2018-01-23T00:20:17.581Z,10.80
2018-01-23T00:22:45.019Z,9.10
2018-01-23T00:25:13.229Z,9.20
2018-01-23T00:27:41.452Z,9.23
2018-01-23T00:30:08.906Z,11.83
2018-01-23T00:32:37.140Z,13.33
2018-01-23T00:35:04.579Z,12.10
2018-01-23T00:37:32.029Z,11.77
2018-01-23T00:39:59.491Z,11.93
2018-01-23T00:42:26.946Z,12.50
2018-01-23T00:44:54.392Z,12.20
2018-01-23T00:47:22.631Z,12.97
2018-01-23T00:49:50.071Z,12.20
2018-01-23T00:52:17.535Z,11.60
2018-01-23T00:54:44.996Z,11.47
2018-01-23T00:57:12.443Z,12.53
2018-01-23T00:59:39.901Z,11.77
2018-01-23T01:02:08.119Z,12.93
2018-01-23T01:04:36.370Z,12.13
2018-01-23T01:07:03.829Z,11.53
2018-01-23T01:09:31.283Z,11.47
2018-01-23T01:11:58.759Z,11.60
2018-01-23T01:14:26.983Z,10.90
2018-01-23T01:16:54.433Z,12.00
2018-01-23T01:19:21.923Z,10.70
2018-01-23T01:21:49.339Z,10.87
2018-01-23T01:24:16.799Z,9.30
2018-01-23T01:26:44.254Z,10.07
2018-01-23T01:29:11.724Z,10.70
2018-01-23T01:31:39.171Z,11.25
2018-01-23T01:34:07.397Z,11.73
2018-01-23T01:36:34.856Z,11.23
2018-01-23T01:39:03.091Z,11.50
2018-01-23T01:41:30.535Z,11.07
2018-01-23T01:43:58.009Z,10.10
2018-01-23T01:46:25.467Z,11.40
2018-01-23T01:48:52.953Z,10.02
2018-01-23T01:51:20.391Z,10.65
2018-01-23T01:53:47.846Z,10.60
2018-01-23T01:56:15.297Z,10.60
2018-01-23T01:58:42.750Z,12.35
2018-01-23T02:01:10.215Z,11.45
2018-01-23T02:03:37.675Z,10.77
2018-01-23T02:06:05.144Z,10.23
2018-01-23T02:08:32.591Z,11.67
2018-01-23T02:11:00.052Z,12.30
2018-01-23T02:13:27.499Z,12.73
2018-01-23T02:15:56.458Z,12.15
2018-01-23T02:18:23.927Z,11.48
2018-01-23T02:20:51.376Z,12.27
2018-01-23T02:23:18.836Z,12.75
2018-01-23T02:25:46.282Z,9.30
2018-01-23T02:28:13.740Z,9.55
2018-01-23T02:30:42.342Z,10.38
2018-01-23T02:33:10.186Z,12.23
2018-01-23T02:35:37.663Z,11.55
2018-01-23T02:38:05.894Z,12.05
2018-01-23T02:40:33.351Z,12.20
2018-01-23T02:43:00.819Z,10.38
2018-01-23T02:45:28.279Z,11.05
2018-01-23T02:47:55.748Z,11.20
2018-01-23T02:50:23.216Z,12.13
2018-01-23T02:52:51.049Z,11.38
2018-01-23T02:55:18.509Z,12.18
2018-01-23T02:57:45.973Z,12.65
2018-01-23T03:00:13.436Z,12.20
2018-01-23T03:02:40.904Z,11.57
2018-01-23T03:05:08.356Z,12.00
2018-01-23T03:07:35.815Z,11.90
2018-01-23T03:10:03.269Z,11.83
2018-01-23T03:12:30.727Z,11.20
2018-01-23T03:14:58.179Z,11.20
2018-01-23T03:17:25.634Z,11.88
2018-01-23T03:19:53.847Z,11.68
2018-01-23T03:22:21.299Z,11.18
2018-01-23T03:24:48.755Z,9.88
2018-01-23T03:27:16.208Z,11.68
2018-01-23T03:29:43.663Z,10.32
2018-01-23T03:32:11.112Z,9.70
2018-01-23T03:34:38.570Z,8.90
2018-01-23T03:37:06.020Z,10.43
2018-01-23T03:39:33.482Z,9.75
2018-01-23T03:42:01.620Z,9.45
2018-01-23T03:44:29.073Z,9.75
2018-01-23T03:46:56.528Z,10.65
2018-01-23T03:49:23.983Z,9.48
2018-01-23T03:51:51.435Z,10.00
2018-01-23T03:54:18.891Z,10.15
2018-01-23T03:56:46.347Z,9.95
2018-01-23T03:59:14.571Z,10.55
2018-01-23T04:01:42.044Z,10.05
2018-01-23T04:04:09.506Z,10.38
2018-01-23T04:06:36.959Z,10.55
2018-01-23T04:09:04.459Z,10.90
2018-01-23T04:11:32.665Z,9.95
2018-01-23T04:14:00.884Z,11.45
2018-01-23T04:16:29.101Z,11.98
2018-01-23T04:18:56.568Z,11.50
2018-01-23T04:21:24.013Z,12.52
2018-01-23T04:23:51.509Z,11.12
2018-01-23T04:26:18.975Z,12.15
2018-01-23T04:28:46.433Z,9.93
2018-01-23T04:31:13.903Z,11.73
2018-01-23T04:33:41.749Z,12.93
2018-01-23T04:36:09.203Z,11.93
2018-01-23T04:38:36.666Z,14.00
2018-01-23T04:41:04.138Z,12.27
2018-01-23T04:43:32.365Z,10.93
2018-01-23T04:45:59.815Z,11.20
2018-01-23T04:48:27.279Z,11.30
2018-01-23T04:50:55.507Z,10.25
2018-01-23T04:53:23.729Z,9.73
2018-01-23T04:55:51.179Z,10.25
2018-01-23T04:58:18.635Z,9.45
2018-01-23T05:00:46.096Z,9.40
2018-01-23T05:03:13.544Z,8.45
2018-01-23T05:05:40.991Z,9.93
2018-01-23T05:08:08.439Z,9.05
2018-01-23T05:10:35.894Z,9.20
2018-01-23T05:13:03.345Z,10.98
2018-01-23T05:15:30.808Z,9.80
2018-01-23T05:17:58.268Z,10.70
2018-01-23T05:20:26.212Z,11.10
2018-01-23T05:22:54.450Z,10.05
2018-01-23T05:25:21.922Z,9.75
2018-01-23T05:27:49.772Z,10.50
2018-01-23T05:30:17.618Z,11.05
2018-01-23T05:32:45.072Z,10.60
2018-01-23T05:35:12.540Z,10.52
2018-01-23T05:37:39.992Z,10.38
2018-01-23T05:40:07.462Z,9.93
2018-01-23T05:42:35.688Z,13.25
2018-01-23T05:45:03.144Z,11.00
2018-01-23T05:47:30.594Z,10.55
2018-01-23T05:49:58.826Z,10.38
2018-01-23T05:52:26.289Z,10.27
2018-01-23T05:54:53.748Z,11.68
2018-01-23T05:57:21.190Z,9.70
2018-01-23T05:59:48.648Z,11.23
2018-01-23T06:02:16.111Z,12.27
2018-01-23T06:04:43.555Z,11.10
2018-01-23T06:07:11.002Z,8.43
2018-01-23T06:09:38.457Z,9.30
2018-01-23T06:12:05.899Z,9.40
2018-01-23T06:14:33.350Z,7.75
2018-01-23T06:17:00.832Z,7.45
2018-01-23T06:19:28.252Z,8.27
2018-01-23T06:21:56.465Z,7.35
2018-01-23T06:24:23.907Z,7.28
2018-01-23T06:26:51.363Z,7.45
2018-01-23T06:29:18.825Z,6.43
2018-01-23T06:31:46.280Z,6.60
2018-01-23T06:34:13.750Z,8.02
2018-01-23T06:36:41.200Z,6.93
2018-01-23T06:39:08.655Z,7.28
2018-01-23T06:41:36.115Z,8.02
2018-01-23T06:44:03.572Z,6.40
2018-01-23T06:46:31.023Z,7.10
2018-01-23T06:48:58.481Z,6.20
2018-01-23T06:51:25.942Z,6.60
2018-01-23T06:53:53.400Z,7.55
2018-01-23T06:56:20.871Z,6.43
2018-01-23T06:58:48.310Z,6.65
2018-01-23T07:01:15.759Z,6.90
2018-01-23T07:03:43.220Z,7.37
2018-01-23T07:06:10.675Z,7.85
2018-01-23T07:08:38.123Z,7.03
2018-01-23T07:11:05.571Z,6.80
2018-01-23T07:13:33.018Z,7.40
2018-01-23T07:16:00.479Z,6.10
2018-01-23T07:18:27.932Z,7.40
2018-01-23T07:20:56.135Z,7.50
2018-01-23T07:23:23.584Z,6.90
2018-01-23T07:25:51.294Z,5.97
2018-01-23T07:28:18.738Z,6.50
2018-01-23T07:30:46.179Z,5.40
2018-01-23T07:33:14.388Z,5.57
2018-01-23T07:35:41.847Z,5.50
2018-01-23T07:38:09.287Z,5.17
2018-01-23T07:40:36.739Z,5.00
2018-01-23T07:43:04.180Z,5.70
2018-01-23T07:45:31.627Z,5.30
2018-01-23T07:47:59.067Z,4.30
2018-01-23T07:50:26.531Z,5.13
2018-01-23T07:52:53.980Z,5.33
2018-01-23T07:55:21.445Z,5.55
2018-01-23T07:57:48.902Z,5.03
2018-01-23T08:00:17.260Z,4.60
2018-01-23T08:02:44.695Z,4.30
2018-01-23T08:05:12.911Z,4.20
2018-01-23T08:07:40.355Z,4.60
2018-01-23T08:10:07.808Z,4.97
2018-01-23T08:12:35.268Z,4.73
2018-01-23T08:15:02.708Z,4.50
2018-01-23T08:17:30.208Z,4.60
2018-01-23T08:19:57.643Z,4.17
2018-01-23T08:22:25.091Z,4.40
2018-01-23T08:24:52.533Z,3.70
2018-01-23T08:27:20.743Z,4.10
2018-01-23T08:29:48.200Z,4.30
2018-01-23T08:32:15.644Z,2.97
2018-01-23T08:34:43.103Z,4.00
2018-01-23T08:37:10.555Z,6.28
2018-01-23T08:39:38.011Z,4.20
2018-01-23T08:42:05.454Z,3.92
2018-01-23T08:44:32.901Z,4.00
2018-01-23T08:47:01.119Z,5.25
2018-01-23T08:49:28.599Z,20.27
2018-01-23T08:51:56.053Z,9.00
2018-01-23T08:54:23.503Z,5.20
2018-01-23T08:56:50.974Z,3.75
2018-01-23T08:59:18.419Z,4.00
2018-01-23T09:01:45.862Z,5.75
2018-01-23T09:04:13.304Z,3.57
2018-01-23T09:06:40.742Z,4.80
2018-01-23T09:09:08.176Z,4.73
2018-01-23T09:11:36.392Z,4.20
2018-01-23T09:14:03.839Z,3.90
2018-01-23T09:16:31.275Z,3.20
2018-01-23T09:18:58.718Z,3.40
2018-01-23T09:21:27.171Z,3.37
2018-01-23T09:23:55.382Z,3.17
2018-01-23T09:26:23.595Z,3.60
2018-01-23T09:28:51.041Z,4.93
2018-01-23T09:31:18.489Z,7.33
2018-01-23T09:33:46.322Z,6.73
2018-01-23T09:36:14.537Z,4.83
2018-01-23T09:38:41.970Z,5.00
2018-01-23T09:41:09.433Z,6.47
2018-01-23T09:43:36.875Z,7.10
2018-01-23T09:46:05.098Z,6.80
2018-01-23T09:48:32.547Z,4.07
2018-01-23T09:51:00.002Z,7.77
2018-01-23T09:53:27.465Z,9.65
2018-01-23T09:55:54.918Z,9.97
2018-01-23T09:58:22.376Z,14.37
2018-01-23T10:00:49.827Z,5.43
2018-01-23T10:03:17.266Z,10.00
2018-01-23T10:05:44.728Z,7.63
2018-01-23T10:08:12.179Z,4.83
2018-01-23T10:10:39.641Z,3.63
2018-01-23T10:13:07.119Z,3.00
2018-01-23T10:15:34.540Z,4.17
2018-01-23T10:18:01.983Z,5.90
2018-01-23T10:20:30.192Z,4.50
2018-01-23T10:22:57.640Z,4.60
2018-01-23T10:25:25.083Z,7.47
2018-01-23T10:27:52.531Z,4.80
2018-01-23T10:30:20.740Z,6.90
2018-01-23T10:32:48.183Z,5.13
2018-01-23T10:35:15.619Z,5.10
2018-01-23T10:37:43.827Z,3.13
2018-01-23T10:40:12.042Z,2.30
2018-01-23T10:42:39.495Z,5.13
2018-01-23T10:45:06.943Z,3.90
2018-01-23T10:47:34.400Z,2.50
2018-01-23T10:50:01.847Z,2.30
2018-01-23T10:52:29.284Z,2.50
2018-01-23T10:54:56.715Z,3.03
2018-01-23T10:57:24.158Z,2.80
2018-01-23T10:59:52.371Z,3.53
2018-01-23T11:02:19.820Z,6.07
2018-01-23T11:04:47.273Z,3.43
2018-01-23T11:07:14.723Z,11.67
2018-01-23T11:09:42.167Z,11.47
2018-01-23T11:12:10.387Z,4.67
2018-01-23T11:14:37.835Z,5.00
2018-01-23T11:17:05.281Z,4.80
2018-01-23T11:19:32.732Z,3.77
2018-01-23T11:22:00.172Z,2.80
2018-01-23T11:24:27.619Z,3.20
2018-01-23T11:26:55.835Z,2.23
2018-01-23T11:29:23.289Z,2.67
2018-01-23T11:31:51.865Z,2.33
2018-01-23T11:34:19.312Z,2.67
2018-01-23T11:36:47.147Z,2.17
2018-01-23T11:39:15.000Z,3.93
2018-01-23T11:41:42.444Z,5.50
2018-01-23T11:44:09.900Z,4.57
2018-01-23T11:46:37.339Z,5.60
2018-01-23T11:49:04.792Z,4.93
2018-01-23T11:51:32.299Z,5.30
2018-01-23T11:53:59.709Z,5.00
2018-01-23T11:56:27.156Z,4.90
2018-01-23T11:58:54.604Z,4.63
2018-01-23T12:01:22.052Z,4.10
2018-01-23T12:03:49.500Z,4.30
2018-01-23T12:06:16.951Z,3.77
2018-01-23T12:08:45.168Z,4.10
2018-01-23T12:11:12.604Z,4.13
2018-01-23T12:13:40.064Z,5.00
2018-01-23T12:16:07.522Z,4.57
2018-01-23T12:18:34.951Z,4.47
2018-01-23T12:21:02.391Z,3.67
2018-01-23T12:23:30.603Z,5.70
2018-01-23T12:25:58.060Z,4.13
2018-01-23T12:28:25.491Z,3.33
2018-01-23T12:30:52.941Z,3.43
2018-01-23T12:33:21.147Z,3.37
2018-01-23T12:35:48.612Z,3.13
2018-01-23T12:38:16.038Z,4.47
2018-01-23T12:40:43.495Z,7.47
2018-01-23T12:43:10.939Z,5.10
2018-01-23T12:45:39.153Z,4.40
2018-01-23T12:48:06.602Z,6.73
2018-01-23T12:50:34.071Z,6.20
2018-01-23T12:53:01.528Z,5.60
2018-01-23T12:55:28.981Z,5.43
2018-01-23T12:57:56.419Z,4.43
2018-01-23T13:00:23.866Z,4.17
2018-01-23T13:02:51.472Z,4.43
2018-01-23T13:05:19.652Z,4.70
2018-01-23T13:07:47.098Z,4.37
2018-01-23T13:10:14.943Z,11.90
2018-01-23T13:12:42.396Z,3.20
2018-01-23T13:15:09.843Z,3.70
2018-01-23T13:17:37.292Z,3.07
2018-01-23T13:20:04.740Z,3.83
2018-01-23T13:22:32.943Z,2.70
2018-01-23T13:25:00.397Z,2.87
2018-01-23T13:27:27.840Z,4.43
2018-01-23T13:29:55.287Z,4.30
2018-01-23T13:32:22.731Z,4.20
2018-01-23T13:34:50.951Z,4.40
2018-01-23T13:37:18.399Z,4.63
2018-01-23T13:39:46.608Z,3.37
2018-01-23T13:42:14.043Z,4.70
2018-01-23T13:44:41.489Z,2.97
2018-01-23T13:47:08.923Z,2.97
2018-01-23T13:49:36.377Z,4.67
2018-01-23T13:52:04.125Z,3.17
2018-01-23T13:54:32.343Z,5.43
2018-01-23T13:56:59.801Z,13.50
2018-01-23T13:59:27.244Z,5.40
2018-01-23T14:01:54.689Z,4.40
2018-01-23T14:04:22.128Z,3.60
2018-01-23T14:06:50.337Z,4.23
2018-01-23T14:09:17.779Z,3.63
2018-01-23T14:11:45.234Z,3.50
2018-01-23T14:14:12.667Z,3.77
2018-01-23T14:16:40.879Z,4.73
2018-01-23T14:19:08.323Z,4.77
2018-01-23T14:21:35.768Z,3.70
2018-01-23T14:24:03.208Z,3.40
2018-01-23T14:26:31.419Z,4.50
2018-01-23T14:28:58.873Z,5.10
2018-01-23T14:31:26.340Z,7.70
2018-01-23T14:33:53.796Z,7.60
2018-01-23T14:36:21.233Z,6.70
2018-01-23T14:38:48.681Z,6.03
2018-01-23T14:41:16.142Z,5.23
2018-01-23T14:43:43.976Z,4.00
2018-01-23T14:46:11.426Z,10.23
2018-01-23T14:48:38.875Z,8.00
2018-01-23T14:51:06.334Z,6.90
2018-01-23T14:53:33.771Z,8.70
2018-01-23T14:56:01.248Z,15.20
2018-01-23T14:58:28.691Z,19.13
2018-01-23T15:00:56.172Z,12.73
2018-01-23T15:03:23.605Z,14.83
2018-01-23T15:05:51.062Z,11.27
2018-01-23T15:08:18.499Z,7.60
2018-01-23T15:10:45.967Z,8.93
2018-01-23T15:13:13.452Z,9.37
2018-01-23T15:15:40.901Z,7.13
2018-01-23T15:18:08.342Z,8.27
2018-01-23T15:20:35.789Z,8.10
2018-01-23T15:23:03.248Z,10.50
2018-01-23T15:25:30.693Z,10.20
2018-01-23T15:27:58.135Z,12.27
2018-01-23T15:30:25.579Z,24.23
2018-01-23T15:32:53.034Z,54.03
2018-01-23T15:35:21.285Z,131.53
2018-01-23T15:37:48.714Z,32.37
2018-01-23T15:40:16.159Z,20.50
2018-01-23T15:42:44.016Z,11.03
2018-01-23T15:45:11.463Z,12.67
2018-01-23T15:47:38.921Z,12.67
2018-01-23T15:50:06.373Z,15.60
2018-01-23T15:52:33.823Z,8.00
2018-01-23T15:55:01.264Z,8.63
2018-01-23T15:57:29.488Z,10.03
2018-01-23T15:59:56.935Z,7.47
2018-01-23T16:02:24.384Z,8.60
2018-01-23T16:04:51.839Z,12.50
2018-01-23T16:07:19.302Z,10.37
2018-01-23T16:09:46.742Z,9.27
2018-01-23T16:12:14.964Z,14.07
2018-01-23T16:14:42.403Z,12.40
2018-01-23T16:17:09.855Z,12.20
2018-01-23T16:19:38.066Z,12.63
2018-01-23T16:22:05.521Z,13.60
2018-01-23T16:24:32.971Z,10.10
2018-01-23T16:27:00.438Z,7.30
2018-01-23T16:29:27.865Z,6.73
2018-01-23T16:31:55.308Z,6.90
2018-01-23T16:34:22.755Z,6.33
2018-01-23T16:36:50.204Z,10.87
2018-01-23T16:39:17.649Z,7.10
2018-01-23T16:41:45.091Z,8.50
2018-01-23T16:44:13.304Z,7.00
2018-01-23T16:46:40.746Z,6.73
2018-01-23T16:49:08.192Z,5.67
2018-01-23T16:51:35.650Z,14.73
2018-01-23T16:54:03.095Z,12.20
2018-01-23T16:56:31.313Z,34.20
2018-01-23T16:58:58.777Z,22.20
2018-01-23T17:01:26.987Z,23.63
2018-01-23T17:03:55.206Z,23.27
2018-01-23T17:06:22.642Z,11.87
2018-01-23T17:08:50.086Z,12.20
2018-01-23T17:11:18.299Z,7.60
2018-01-23T17:13:45.746Z,9.10
2018-01-23T17:16:13.205Z,11.17
2018-01-23T17:18:40.638Z,12.17
2018-01-23T17:21:08.102Z,11.83
2018-01-23T17:23:35.552Z,15.17
2018-01-23T17:26:03.053Z,13.90
2018-01-23T17:28:30.490Z,11.80
2018-01-23T17:30:57.935Z,11.40
2018-01-23T17:33:25.425Z,14.70
2018-01-23T17:35:52.858Z,16.80
2018-01-23T17:38:20.311Z,17.57
2018-01-23T17:40:48.519Z,18.77
2018-01-23T17:43:16.375Z,18.00
2018-01-23T17:45:44.595Z,22.20
2018-01-23T17:48:12.815Z,21.50
2018-01-23T17:50:40.270Z,18.40
2018-01-23T17:53:07.757Z,8.07
2018-01-23T17:55:35.192Z,7.97
2018-01-23T17:58:02.648Z,9.37
2018-01-23T18:00:35.950Z,8.97
2018-01-23T18:03:03.399Z,6.80
2018-01-23T18:05:30.847Z,7.10
2018-01-23T18:07:58.500Z,7.00
2018-01-23T18:10:25.954Z,5.77
2018-01-23T18:12:53.419Z,8.52
2018-01-23T18:15:20.899Z,10.10
2018-01-23T18:17:48.355Z,7.07
2018-01-23T18:20:15.795Z,6.87
2018-01-23T18:22:43.251Z,6.40
2018-01-23T18:25:10.743Z,5.17
2018-01-23T18:27:38.186Z,7.15
2018-01-23T18:30:05.663Z,8.07
2018-01-23T18:32:33.876Z,7.20
2018-01-23T18:35:01.385Z,6.25
2018-01-23T18:37:28.825Z,11.30
2018-01-23T18:39:56.332Z,10.93
2018-01-23T18:42:24.171Z,7.05
2018-01-23T18:44:52.079Z,7.45
2018-01-23T18:47:20.287Z,6.18
2018-01-23T18:49:47.789Z,5.97
2018-01-23T18:52:15.243Z,6.12
2018-01-23T18:54:42.691Z,4.87
2018-01-23T18:57:10.927Z,6.53
2018-01-23T18:59:38.381Z,7.22
2018-01-23T19:02:06.594Z,9.25
2018-01-23T19:04:34.798Z,8.77
2018-01-23T19:07:02.251Z,10.35
2018-01-23T19:09:29.758Z,9.25
2018-01-23T19:11:57.257Z,9.70
2018-01-23T19:14:25.535Z,9.55
2018-01-23T19:16:53.779Z,9.93
2018-01-23T19:19:21.978Z,9.13
2018-01-23T19:21:50.186Z,10.23
2018-01-23T19:24:18.498Z,11.57
2018-01-23T19:26:45.928Z,11.12
2018-01-23T19:29:13.393Z,10.40
2018-01-23T19:31:40.894Z,9.52
2018-01-23T19:34:09.095Z,9.60
2018-01-23T19:36:36.548Z,8.77
2018-01-23T19:39:04.080Z,9.50
2018-01-23T19:41:31.596Z,10.15
2018-01-23T19:43:59.077Z,10.82
2018-01-23T19:46:28.191Z,17.30
2018-01-23T19:48:55.704Z,29.27
2018-01-23T19:51:23.147Z,16.98
2018-01-23T19:53:51.469Z,14.98
2018-01-23T19:56:18.960Z,15.93
2018-01-23T19:58:46.615Z,18.20
2018-01-23T20:01:15.234Z,12.63
2018-01-23T20:03:42.859Z,12.40
2018-01-23T20:06:10.333Z,20.17
2018-01-23T20:08:37.840Z,42.03
2018-01-23T20:11:05.353Z,23.45
2018-01-23T20:13:32.795Z,32.67
2018-01-23T20:16:00.295Z,29.37
2018-01-23T20:18:27.786Z,57.60
2018-01-23T20:20:55.220Z,44.55
2018-01-23T20:23:23.962Z,34.65
2018-01-23T20:25:51.448Z,52.60
2018-01-23T20:28:18.880Z,45.70
2018-01-23T20:30:46.382Z,44.70
2018-01-23T20:33:13.823Z,106.78
2018-01-23T20:35:41.291Z,72.10
2018-01-23T20:38:08.793Z,49.08
2018-01-23T20:40:37.050Z,57.35
2018-01-23T20:43:04.533Z,55.92
2018-01-23T20:45:32.031Z,74.05
2018-01-23T20:47:59.463Z,81.35
2018-01-23T20:50:26.918Z,87.62
2018-01-23T20:52:54.375Z,47.80
2018-01-23T20:55:21.818Z,23.75
2018-01-23T20:57:49.307Z,19.27
2018-01-23T21:00:16.739Z,23.12
2018-01-23T21:02:44.183Z,16.35
2018-01-23T21:05:11.685Z,13.75
2018-01-23T21:07:39.116Z,15.63
2018-01-23T21:10:06.615Z,16.80
2018-01-23T21:12:34.079Z,21.30
2018-01-23T21:15:01.559Z,32.95
2018-01-23T21:17:29.803Z,28.23
2018-01-23T21:19:57.230Z,31.77
2018-01-23T21:22:24.751Z,31.20
2018-01-23T21:24:52.954Z,28.75
2018-01-23T21:27:20.453Z,26.42
2018-01-23T21:29:47.878Z,30.48
2018-01-23T21:32:15.370Z,24.92
2018-01-23T21:34:42.845Z,43.70
2018-01-23T21:37:11.111Z,43.42
2018-01-23T21:39:46.458Z,53.17
2018-01-23T21:42:17.067Z,28.83
2018-01-23T21:44:44.822Z,31.55
2018-01-23T21:47:20.123Z,28.65
2018-01-23T21:49:57.510Z,25.37
2018-01-23T21:55:14.577Z,27.08
2018-01-23T21:57:43.372Z,25.98
2018-01-23T22:00:11.571Z,23.42
2018-01-23T22:02:39.784Z,24.33
2018-01-23T22:05:07.285Z,24.45
2018-01-23T22:07:34.723Z,33.22
2018-01-23T22:10:02.767Z,38.78
2018-01-23T22:12:37.285Z,38.10
2018-01-23T22:15:14.666Z,35.00
2018-01-23T22:17:47.695Z,33.30
2018-01-23T22:20:25.563Z,31.35
2018-01-23T22:25:58.387Z,29.58
2018-01-23T22:31:27.937Z,24.48
2018-01-23T22:34:04.075Z,28.65
2018-01-23T22:36:45.717Z,30.08
2018-01-23T22:39:21.277Z,28.73
2018-01-23T22:44:41.248Z,35.22
2018-01-23T22:47:16.985Z,33.78
2018-01-23T22:50:10.065Z,30.77
2018-01-23T22:55:23.908Z,27.25
2018-01-23T22:57:57.803Z,29.98
2018-01-23T23:03:14.252Z,31.10
2018-01-23T23:05:41.801Z,25.83
2018-01-23T23:08:13.752Z,21.95
2018-01-23T23:11:10.008Z,24.45
2018-01-23T23:13:37.431Z,20.67
2018-01-23T23:16:04.875Z,19.92
2018-01-23T23:18:32.316Z,18.73
2018-01-23T23:20:59.763Z,20.12
2018-01-23T23:23:27.215Z,20.08
2018-01-23T23:25:54.664Z,19.55
2018-01-23T23:28:22.104Z,22.83
2018-01-23T23:30:49.555Z,22.52
2018-01-23T23:33:17.013Z,21.45
2018-01-23T23:35:44.468Z,22.37
2018-01-23T23:38:12.310Z,21.35
2018-01-23T23:40:40.147Z,20.58
2018-01-23T23:43:08.367Z,22.02
2018-01-23T23:45:36.575Z,22.95
2018-01-23T23:48:04.022Z,24.87
2018-01-23T23:50:31.467Z,26.00
2018-01-23T23:52:58.913Z,24.30
2018-01-23T23:55:27.118Z,25.90
2018-01-23T23:57:54.569Z,27.62
